createdAt,value
2023-02-13T00:00:02.435Z,238.00
2023-02-13T00:02:29.950Z,200.27
2023-02-13T00:04:57.429Z,195.27
2023-02-13T00:07:24.916Z,244.30
2023-02-13T00:09:52.379Z,196.53
2023-02-13T00:12:19.926Z,264.93
2023-02-13T00:14:47.409Z,193.80
2023-02-13T00:17:16.389Z,198.50
2023-02-13T00:19:43.954Z,231.10
2023-02-13T00:22:11.695Z,122.77
2023-02-13T00:24:39.240Z,129.30
2023-02-13T00:27:06.698Z,137.10
2023-02-13T00:29:34.187Z,136.97
2023-02-13T00:32:02.389Z,168.90
2023-02-13T00:34:31.323Z,212.20
2023-02-13T00:36:58.781Z,90.87
2023-02-13T00:39:26.408Z,116.80
2023-02-13T00:41:53.898Z,89.07
2023-02-13T00:44:21.413Z,125.17
2023-02-13T00:46:48.926Z,132.83
2023-02-13T00:49:16.418Z,149.43
2023-02-13T00:51:45.391Z,134.27
2023-02-13T00:54:12.882Z,128.40
2023-02-13T00:56:40.516Z,161.53
2023-02-13T00:59:08.589Z,113.70
2023-02-13T01:01:36.100Z,110.73
2023-02-13T01:04:04.013Z,151.77
2023-02-13T01:06:31.522Z,122.37
2023-02-13T01:09:00.384Z,148.00
2023-02-13T01:11:27.925Z,202.43
2023-02-13T01:13:55.401Z,116.87
2023-02-13T01:16:23.000Z,82.43
2023-02-13T01:18:50.547Z,132.33
2023-02-13T01:21:19.960Z,58.03
2023-02-13T01:23:47.971Z,95.33
2023-02-13T01:26:19.542Z,98.83
2023-02-13T01:28:47.288Z,115.03
2023-02-13T01:31:15.126Z,209.30
2023-02-13T01:33:42.698Z,113.13
2023-02-13T01:36:12.360Z,259.80
2023-02-13T01:38:40.031Z,124.13
2023-02-13T01:41:08.304Z,137.17
2023-02-13T01:43:50.059Z,108.70
2023-02-13T01:46:20.326Z,106.50
2023-02-13T01:48:50.488Z,103.03
2023-02-13T01:51:21.280Z,111.83
2023-02-13T01:53:53.542Z,93.90
2023-02-13T01:56:26.478Z,222.10
2023-02-13T01:58:59.221Z,87.23
2023-02-13T02:01:27.773Z,169.53
2023-02-13T02:03:59.634Z,196.97
2023-02-13T02:06:29.302Z,144.83
2023-02-13T02:09:01.687Z,178.47
2023-02-13T02:11:36.463Z,151.37
2023-02-13T02:14:05.505Z,154.13
2023-02-13T02:16:33.840Z,224.87
2023-02-13T02:19:03.190Z,239.43
2023-02-13T02:21:54.205Z,276.10
2023-02-13T02:24:55.363Z,128.43
2023-02-13T02:28:10.678Z,181.23
2023-02-13T02:31:32.360Z,262.70
2023-02-13T02:34:15.886Z,191.43
2023-02-13T02:36:59.817Z,212.07
2023-02-13T02:39:37.166Z,166.30
2023-02-13T02:42:16.594Z,98.20
2023-02-13T02:44:52.220Z,103.83
2023-02-13T02:47:42.717Z,124.53
2023-02-13T02:50:24.719Z,106.37
2023-02-13T02:53:04.240Z,115.80
2023-02-13T02:55:39.821Z,88.87
2023-02-13T02:58:32.493Z,131.47
2023-02-13T03:01:19.613Z,59.77
2023-02-13T03:04:06.173Z,48.43
2023-02-13T03:06:41.202Z,70.17
2023-02-13T03:09:31.429Z,62.17
2023-02-13T03:12:17.074Z,36.43
2023-02-13T03:14:45.208Z,43.07
2023-02-13T03:17:33.679Z,128.27
2023-02-13T03:20:30.847Z,175.37
2023-02-13T03:23:14.857Z,41.83
2023-02-13T03:26:21.666Z,44.10
2023-02-13T03:29:15.769Z,39.60
2023-02-13T03:31:53.889Z,40.80
2023-02-13T03:34:23.929Z,40.57
2023-02-13T03:37:17.769Z,38.13
2023-02-13T03:39:53.507Z,42.13
2023-02-13T03:42:28.064Z,40.90
2023-02-13T03:45:17.527Z,41.93
2023-02-13T03:47:46.361Z,41.83
2023-02-13T03:50:14.975Z,44.53
2023-02-13T03:52:49.348Z,41.80
2023-02-13T03:55:37.720Z,43.43
2023-02-13T03:58:27.279Z,38.57
2023-02-13T04:00:59.719Z,40.03
2023-02-13T04:03:32.733Z,44.83
2023-02-13T04:06:05.663Z,37.40
2023-02-13T04:08:33.306Z,39.73
2023-02-13T04:11:09.677Z,39.87
2023-02-13T04:13:43.734Z,40.27
2023-02-13T04:16:16.244Z,40.50
2023-02-13T04:18:45.478Z,39.10
2023-02-13T04:21:12.929Z,41.70
2023-02-13T04:23:40.398Z,38.00
2023-02-13T04:26:17.434Z,40.13
2023-02-13T04:28:44.932Z,38.73
2023-02-13T04:31:12.559Z,36.00
2023-02-13T04:33:40.129Z,39.50
2023-02-13T04:36:08.308Z,37.30
2023-02-13T04:38:35.753Z,40.27
2023-02-13T04:41:03.289Z,37.93
2023-02-13T04:43:32.056Z,39.17
2023-02-13T04:45:59.529Z,36.70
2023-02-13T04:48:27.166Z,36.93
2023-02-13T04:50:54.657Z,40.23
2023-02-13T04:53:22.130Z,36.03
2023-02-13T04:55:49.633Z,35.63
2023-02-13T04:58:17.093Z,35.27
2023-02-13T05:00:45.968Z,36.67
2023-02-13T05:03:14.511Z,34.53
2023-02-13T05:05:42.250Z,44.50
2023-02-13T05:08:10.116Z,40.70
2023-02-13T05:10:38.136Z,37.83
2023-02-13T05:13:05.670Z,40.50
2023-02-13T05:15:33.534Z,37.47
2023-02-13T05:18:02.345Z,35.70
2023-02-13T05:20:29.868Z,34.23
2023-02-13T05:23:14.764Z,34.37
2023-02-13T05:25:43.709Z,31.87
2023-02-13T05:28:31.381Z,34.40
2023-02-13T05:30:59.356Z,34.90
2023-02-13T05:33:28.496Z,39.93
2023-02-13T05:35:55.984Z,38.40
2023-02-13T05:38:23.457Z,37.17
2023-02-13T05:40:50.933Z,37.70
2023-02-13T05:43:18.469Z,31.27
2023-02-13T05:45:46.042Z,32.33
2023-02-13T05:48:13.550Z,41.37
2023-02-13T05:50:42.349Z,39.40
2023-02-13T05:53:09.856Z,37.73
2023-02-13T05:55:37.314Z,34.90
2023-02-13T05:58:04.793Z,33.17
2023-02-13T06:00:32.268Z,33.67
2023-02-13T06:02:59.773Z,39.03
2023-02-13T06:05:27.397Z,32.13
2023-02-13T06:07:56.211Z,35.17
2023-02-13T06:10:23.689Z,35.53
2023-02-13T06:12:51.171Z,35.17
2023-02-13T06:15:18.937Z,37.77
2023-02-13T06:17:46.434Z,36.20
2023-02-13T06:20:14.091Z,34.67
2023-02-13T06:22:41.549Z,35.77
2023-02-13T06:25:10.413Z,36.00
2023-02-13T06:27:37.898Z,31.67
2023-02-13T06:30:05.871Z,40.10
2023-02-13T06:32:33.346Z,43.30
2023-02-13T06:35:00.823Z,41.53
2023-02-13T06:37:28.530Z,38.17
2023-02-13T06:39:56.018Z,38.07
2023-02-13T06:42:24.843Z,34.40
2023-02-13T06:44:52.336Z,38.27
2023-02-13T06:47:19.797Z,46.37
2023-02-13T06:49:47.275Z,57.33
2023-02-13T06:52:14.758Z,56.80
2023-02-13T06:54:47.809Z,51.30
2023-02-13T06:57:16.049Z,42.47
2023-02-13T06:59:44.908Z,42.43
2023-02-13T07:02:13.369Z,47.53
2023-02-13T07:04:41.050Z,45.53
2023-02-13T07:07:08.526Z,51.13
2023-02-13T07:09:36.002Z,42.20
2023-02-13T07:12:04.660Z,47.73
2023-02-13T07:14:32.143Z,46.73
2023-02-13T07:17:01.020Z,40.03
2023-02-13T07:19:28.465Z,48.53
2023-02-13T07:21:55.910Z,44.23
2023-02-13T07:24:23.401Z,38.70
2023-02-13T07:26:50.890Z,53.60
2023-02-13T07:29:18.363Z,51.73
2023-02-13T07:31:45.843Z,49.00
2023-02-13T07:34:14.768Z,58.77
2023-02-13T07:36:42.200Z,53.97
2023-02-13T07:39:09.886Z,54.70
2023-02-13T07:41:37.365Z,54.63
2023-02-13T07:44:04.936Z,49.17
2023-02-13T07:46:32.392Z,50.90
2023-02-13T07:48:59.837Z,49.27
2023-02-13T07:51:29.103Z,47.67
2023-02-13T07:53:57.705Z,47.10
2023-02-13T07:56:25.318Z,43.23
2023-02-13T07:58:52.772Z,39.63
2023-02-13T08:01:20.665Z,46.73
2023-02-13T08:03:51.682Z,41.03
2023-02-13T08:06:20.221Z,40.60
2023-02-13T08:08:49.028Z,35.97
2023-02-13T08:11:42.876Z,38.17
2023-02-13T08:14:10.380Z,38.53
2023-02-13T08:16:37.873Z,33.37
2023-02-13T08:19:05.338Z,32.60
2023-02-13T08:21:32.930Z,34.47
2023-02-13T08:24:01.890Z,41.13
2023-02-13T08:26:31.892Z,38.87
2023-02-13T08:28:59.484Z,45.97
2023-02-13T08:31:27.393Z,36.90
2023-02-13T08:33:54.988Z,36.40
2023-02-13T08:36:22.440Z,37.30
2023-02-13T08:38:50.285Z,45.53
2023-02-13T08:41:20.868Z,41.50
2023-02-13T08:43:48.741Z,47.53
2023-02-13T08:46:16.350Z,45.83
2023-02-13T08:48:44.069Z,44.83
2023-02-13T08:51:13.704Z,42.97
2023-02-13T08:53:42.281Z,45.13
2023-02-13T08:56:10.572Z,45.10
2023-02-13T08:58:39.651Z,40.10
2023-02-13T09:01:08.728Z,39.33
2023-02-13T09:03:37.152Z,40.07
2023-02-13T09:06:05.147Z,38.77
2023-02-13T09:08:32.730Z,34.47
2023-02-13T09:11:02.331Z,32.80
2023-02-13T09:13:30.409Z,32.20
2023-02-13T09:16:01.475Z,29.83
2023-02-13T09:18:29.735Z,29.80
2023-02-13T09:21:01.309Z,29.70
2023-02-13T09:23:32.322Z,27.73
2023-02-13T09:26:01.626Z,32.40
2023-02-13T09:28:29.375Z,29.47
2023-02-13T09:30:57.030Z,28.27
2023-02-13T09:33:26.749Z,29.53
2023-02-13T09:35:54.193Z,33.70
2023-02-13T09:38:21.638Z,44.90
2023-02-13T09:40:52.444Z,56.67
2023-02-13T09:43:28.519Z,42.83
2023-02-13T09:45:59.913Z,20.87
2023-02-13T09:48:31.971Z,20.40
2023-02-13T09:51:00.376Z,19.13
2023-02-13T09:53:33.311Z,16.13
2023-02-13T09:56:10.087Z,16.07
2023-02-13T09:58:44.132Z,14.27
2023-02-13T10:01:21.096Z,16.77
2023-02-13T10:03:58.558Z,15.32
2023-02-13T10:06:31.810Z,14.93
2023-02-13T10:09:08.972Z,15.45
2023-02-13T10:11:54.418Z,17.13
2023-02-13T10:14:28.092Z,15.52
2023-02-13T10:17:00.859Z,16.40
2023-02-13T10:19:36.864Z,18.55
2023-02-13T10:22:08.529Z,14.75
2023-02-13T10:24:41.038Z,16.42
2023-02-13T10:27:20.817Z,16.13
2023-02-13T10:30:09.381Z,15.55
2023-02-13T10:32:43.956Z,17.75
2023-02-13T10:35:21.731Z,15.57
2023-02-13T10:37:51.982Z,16.98
2023-02-13T10:40:20.571Z,16.83
2023-02-13T10:42:57.519Z,16.83
2023-02-13T10:45:40.230Z,17.08
2023-02-13T10:48:20.605Z,18.00
2023-02-13T10:51:01.710Z,14.43
2023-02-13T10:53:44.269Z,13.90
2023-02-13T10:56:23.397Z,14.55
2023-02-13T10:59:05.815Z,15.48
2023-02-13T11:01:40.655Z,14.75
2023-02-13T11:04:10.702Z,15.30
2023-02-13T11:06:44.069Z,15.57
2023-02-13T11:09:13.343Z,15.93
2023-02-13T11:11:43.262Z,14.15
2023-02-13T11:14:16.247Z,14.27
2023-02-13T11:16:55.133Z,12.40
2023-02-13T11:19:27.733Z,16.17
2023-02-13T11:21:59.978Z,13.18
2023-02-13T11:24:29.441Z,12.38
2023-02-13T11:27:01.726Z,14.00
2023-02-13T11:29:31.441Z,13.35
2023-02-13T11:32:05.965Z,13.05
2023-02-13T11:34:35.128Z,13.75
2023-02-13T11:37:17.832Z,17.02
2023-02-13T11:39:46.876Z,14.07
2023-02-13T11:42:16.456Z,12.50
2023-02-13T11:44:50.285Z,14.98
2023-02-13T11:47:18.041Z,15.23
2023-02-13T11:49:48.077Z,18.13
2023-02-13T11:52:28.615Z,14.48
2023-02-13T11:54:58.852Z,13.70
2023-02-13T11:57:31.317Z,14.43
2023-02-13T12:00:00.150Z,12.40
2023-02-13T12:02:29.423Z,11.65
2023-02-13T12:05:16.337Z,13.45
2023-02-13T12:07:46.019Z,12.25
2023-02-13T12:10:22.217Z,12.23
2023-02-13T12:12:55.642Z,14.00
2023-02-13T12:15:25.556Z,12.00
2023-02-13T12:18:03.822Z,12.77
2023-02-13T12:20:41.051Z,11.40
2023-02-13T12:23:19.616Z,10.52
2023-02-13T12:26:00.138Z,12.15
2023-02-13T12:28:42.603Z,11.52
2023-02-13T12:31:35.586Z,11.90
2023-02-13T12:34:24.829Z,12.02
2023-02-13T12:37:04.624Z,12.02
2023-02-13T12:39:36.184Z,14.23
2023-02-13T12:42:20.812Z,12.25
2023-02-13T12:45:09.652Z,11.05
2023-02-13T12:47:46.343Z,12.00
2023-02-13T12:50:38.437Z,11.77
2023-02-13T12:53:21.139Z,9.02
2023-02-13T12:56:05.777Z,12.68
2023-02-13T12:58:46.568Z,10.23
2023-02-13T13:01:26.972Z,6.63
2023-02-13T13:04:09.370Z,4.95
2023-02-13T13:06:54.908Z,9.95
2023-02-13T13:09:58.280Z,8.90
2023-02-13T13:12:43.730Z,4.00
2023-02-13T13:15:19.900Z,5.00
2023-02-13T13:17:58.935Z,7.15
2023-02-13T13:20:44.268Z,6.85
2023-02-13T13:23:17.714Z,8.13
2023-02-13T13:25:51.983Z,7.03
2023-02-13T13:28:24.566Z,6.22
2023-02-13T13:30:54.037Z,6.03
2023-02-13T13:33:23.273Z,6.95
2023-02-13T13:35:59.686Z,7.95
2023-02-13T13:38:51.673Z,5.70
2023-02-13T13:41:29.493Z,4.97
2023-02-13T13:44:20.849Z,6.78
2023-02-13T13:46:56.680Z,5.85
2023-02-13T13:49:33.153Z,6.63
2023-02-13T13:52:12.545Z,6.65
2023-02-13T13:54:40.034Z,5.57
2023-02-13T13:57:09.268Z,6.07
2023-02-13T13:59:59.923Z,6.55
2023-02-13T14:02:38.517Z,6.00
2023-02-13T14:05:19.589Z,6.00
2023-02-13T14:07:48.646Z,6.53
2023-02-13T14:11:03.202Z,6.97
2023-02-13T14:13:34.064Z,6.53
2023-02-13T14:16:03.560Z,5.35
2023-02-13T14:18:32.238Z,5.85
2023-02-13T14:21:01.923Z,9.43
2023-02-13T14:23:34.597Z,5.43
2023-02-13T14:26:13.855Z,6.72
2023-02-13T14:28:43.307Z,5.18
2023-02-13T14:31:23.297Z,5.90
2023-02-13T14:33:57.102Z,5.95
2023-02-13T14:36:32.192Z,6.10
2023-02-13T14:39:02.275Z,5.57
2023-02-13T14:41:44.338Z,5.40
2023-02-13T14:44:19.017Z,5.60
2023-02-13T14:46:49.269Z,7.20
2023-02-13T14:49:20.246Z,6.73
2023-02-13T14:51:51.134Z,6.57
2023-02-13T14:54:26.836Z,6.33
2023-02-13T14:57:00.378Z,7.27
2023-02-13T14:59:32.641Z,6.97
2023-02-13T15:02:10.104Z,8.97
2023-02-13T15:04:42.726Z,11.73
2023-02-13T15:07:16.602Z,9.57
2023-02-13T15:09:49.237Z,8.40
2023-02-13T15:12:31.305Z,6.70
2023-02-13T15:15:01.221Z,8.47
2023-02-13T15:17:32.765Z,9.03
2023-02-13T15:20:09.785Z,7.00
2023-02-13T15:22:39.429Z,8.03
2023-02-13T15:25:09.270Z,6.23
2023-02-13T15:27:41.614Z,7.27
2023-02-13T15:30:21.771Z,6.50
2023-02-13T15:32:56.840Z,8.20
2023-02-13T15:35:26.868Z,7.87
2023-02-13T15:37:54.833Z,8.10
2023-02-13T15:40:25.836Z,9.07
2023-02-13T15:42:54.177Z,9.33
2023-02-13T15:45:23.733Z,10.33
2023-02-13T15:47:51.975Z,8.27
2023-02-13T15:50:25.356Z,10.70
2023-02-13T15:52:53.955Z,7.30
2023-02-13T15:55:24.294Z,8.37
2023-02-13T15:57:53.046Z,8.40
2023-02-13T16:00:26.228Z,7.53
2023-02-13T16:02:55.864Z,9.77
2023-02-13T16:05:38.893Z,8.30
2023-02-13T16:08:28.231Z,9.17
2023-02-13T16:11:21.961Z,7.73
2023-02-13T16:14:07.135Z,10.47
2023-02-13T16:16:37.349Z,10.07
2023-02-13T16:19:05.241Z,9.53
2023-02-13T16:21:35.846Z,9.93
2023-02-13T16:24:07.492Z,9.73
2023-02-13T16:26:36.326Z,10.47
2023-02-13T16:29:03.935Z,11.73
2023-02-13T16:31:31.515Z,10.40
2023-02-13T16:33:58.989Z,10.83
2023-02-13T16:36:29.820Z,12.17
2023-02-13T16:38:58.617Z,11.27
2023-02-13T16:41:34.054Z,10.53
2023-02-13T16:44:02.359Z,11.20
2023-02-13T16:46:37.248Z,11.70
2023-02-13T16:49:17.229Z,14.17
2023-02-13T16:51:47.760Z,12.30
2023-02-13T16:54:24.016Z,10.83
2023-02-13T16:56:53.620Z,12.53
2023-02-13T16:59:28.893Z,10.50
2023-02-13T17:02:15.431Z,10.47
2023-02-13T17:04:48.002Z,12.47
2023-02-13T17:07:18.769Z,12.53
2023-02-13T17:09:53.658Z,10.17
2023-02-13T17:12:21.615Z,10.90
2023-02-13T17:14:49.118Z,12.07
2023-02-13T17:17:18.922Z,12.57
2023-02-13T17:19:47.006Z,11.10
2023-02-13T17:22:23.442Z,13.80
2023-02-13T17:24:52.343Z,11.83
2023-02-13T17:27:22.425Z,11.13
2023-02-13T17:29:50.239Z,12.47
2023-02-13T17:32:20.250Z,11.47
2023-02-13T17:34:47.756Z,13.37
2023-02-13T17:37:19.376Z,12.67
2023-02-13T17:39:47.935Z,12.03
2023-02-13T17:42:21.010Z,10.13
2023-02-13T17:44:48.498Z,10.70
2023-02-13T17:47:15.981Z,9.83
2023-02-13T17:49:43.485Z,9.73
2023-02-13T17:52:16.688Z,11.73
2023-02-13T17:54:45.189Z,9.27
2023-02-13T17:57:13.413Z,8.50
2023-02-13T17:59:42.649Z,8.33
2023-02-13T18:02:19.195Z,11.50
2023-02-13T18:04:47.285Z,17.73
2023-02-13T18:07:16.653Z,11.67
2023-02-13T18:09:44.197Z,10.83
2023-02-13T18:12:14.819Z,7.67
2023-02-13T18:14:43.821Z,8.67
2023-02-13T18:17:11.767Z,11.93
2023-02-13T18:19:39.996Z,9.27
2023-02-13T18:22:08.761Z,8.13
2023-02-13T18:24:37.724Z,11.37
2023-02-13T18:27:07.333Z,10.13
2023-02-13T18:29:36.171Z,9.17
2023-02-13T18:32:08.091Z,9.80
2023-02-13T18:34:37.766Z,13.00
2023-02-13T18:37:06.952Z,13.00
2023-02-13T18:39:34.651Z,11.73
2023-02-13T18:42:02.493Z,13.30
2023-02-13T18:44:29.977Z,10.33
2023-02-13T18:46:57.766Z,15.33
2023-02-13T18:49:26.952Z,11.53
2023-02-13T18:51:54.478Z,11.30
2023-02-13T18:54:22.164Z,12.80
2023-02-13T18:56:49.966Z,14.40
2023-02-13T18:59:18.485Z,11.77
2023-02-13T19:01:46.289Z,16.77
2023-02-13T19:04:13.896Z,11.27
2023-02-13T19:06:44.016Z,12.00
2023-02-13T19:09:11.996Z,13.00
2023-02-13T19:11:40.752Z,12.73
2023-02-13T19:14:08.585Z,12.27
2023-02-13T19:16:36.795Z,13.63
2023-02-13T19:19:06.188Z,15.13
2023-02-13T19:21:36.166Z,14.87
2023-02-13T19:24:07.673Z,13.80
2023-02-13T19:26:35.697Z,12.93
2023-02-13T19:29:03.238Z,13.87
2023-02-13T19:31:32.629Z,13.03
2023-02-13T19:34:01.348Z,16.20
2023-02-13T19:36:29.917Z,15.63
2023-02-13T19:38:59.544Z,14.53
2023-02-13T19:41:29.020Z,14.70
2023-02-13T19:43:57.193Z,18.33
2023-02-13T19:46:27.727Z,20.67
2023-02-13T19:48:55.413Z,20.83
2023-02-13T19:51:25.118Z,19.70
2023-02-13T19:53:56.570Z,19.23
2023-02-13T19:56:24.439Z,21.77
2023-02-13T19:58:53.259Z,22.83
2023-02-13T20:01:22.610Z,22.77
2023-02-13T20:03:50.207Z,21.70
2023-02-13T20:06:19.832Z,23.63
2023-02-13T20:08:47.733Z,24.80
2023-02-13T20:11:17.036Z,25.30
2023-02-13T20:13:44.789Z,23.80
2023-02-13T20:16:16.339Z,25.00
2023-02-13T20:18:44.126Z,23.60
2023-02-13T20:21:13.814Z,26.20
2023-02-13T20:23:41.992Z,27.77
2023-02-13T20:26:13.658Z,28.53
2023-02-13T20:28:42.471Z,30.77
2023-02-13T20:31:11.646Z,26.17
2023-02-13T20:33:41.183Z,27.53
2023-02-13T20:36:10.360Z,26.77
2023-02-13T20:38:37.872Z,24.87
2023-02-13T20:41:09.567Z,25.53
2023-02-13T20:43:37.993Z,25.63
2023-02-13T20:46:05.930Z,27.60
2023-02-13T20:48:35.848Z,29.57
2023-02-13T20:51:06.898Z,29.03
2023-02-13T20:53:34.855Z,27.93
2023-02-13T20:56:04.743Z,28.03
2023-02-13T20:58:32.621Z,26.47
2023-02-13T21:01:01.007Z,34.93
2023-02-13T21:03:28.774Z,31.87
2023-02-13T21:05:56.299Z,31.97
2023-02-13T21:08:25.111Z,31.67
2023-02-13T21:10:52.575Z,35.00
2023-02-13T21:13:20.113Z,30.27
2023-02-13T21:15:50.487Z,31.37
2023-02-13T21:18:19.800Z,31.57
2023-02-13T21:20:49.805Z,29.67
2023-02-13T21:23:17.281Z,29.23
2023-02-13T21:25:46.135Z,28.57
2023-02-13T21:28:13.626Z,31.37
2023-02-13T21:30:41.152Z,29.90
2023-02-13T21:33:08.641Z,28.90
2023-02-13T21:35:36.190Z,31.90
2023-02-13T21:38:03.643Z,34.80
2023-02-13T21:40:31.131Z,29.93
2023-02-13T21:42:59.950Z,31.47
2023-02-13T21:45:27.519Z,33.10
2023-02-13T21:47:55.742Z,34.27
2023-02-13T21:50:23.601Z,35.63
2023-02-13T21:52:51.100Z,34.23
2023-02-13T21:55:18.757Z,36.97
2023-02-13T21:57:46.230Z,35.73
2023-02-13T22:00:16.575Z,30.73
2023-02-13T22:02:44.069Z,33.87
2023-02-13T22:05:11.584Z,34.53
2023-02-13T22:07:53.013Z,35.33
2023-02-13T22:10:20.477Z,32.97
2023-02-13T22:12:51.947Z,32.53
2023-02-13T22:15:20.871Z,36.87
2023-02-13T22:17:48.437Z,33.90
2023-02-13T22:20:16.085Z,36.23
2023-02-13T22:22:43.679Z,37.73
2023-02-13T22:25:11.391Z,32.87
2023-02-13T22:27:38.874Z,35.10
2023-02-13T22:30:08.931Z,40.07
2023-02-13T22:32:39.714Z,36.27
2023-02-13T22:35:09.447Z,32.43
2023-02-13T22:37:37.486Z,34.73
2023-02-13T22:40:06.530Z,35.20
2023-02-13T22:42:33.986Z,34.63
2023-02-13T22:45:01.459Z,37.77
2023-02-13T22:47:30.097Z,32.40
2023-02-13T22:49:58.903Z,34.30
2023-02-13T22:52:26.337Z,34.80
2023-02-13T22:54:53.791Z,35.97
2023-02-13T22:57:21.227Z,33.30
2023-02-13T22:59:48.686Z,33.77
2023-02-13T23:02:16.136Z,36.17
2023-02-13T23:04:43.714Z,35.03
2023-02-13T23:07:15.036Z,34.90
2023-02-13T23:09:42.480Z,35.00
2023-02-13T23:12:27.545Z,33.87
2023-02-13T23:14:56.665Z,35.07
2023-02-13T23:17:42.006Z,35.23
2023-02-13T23:20:10.814Z,33.23
2023-02-13T23:22:39.657Z,34.70
2023-02-13T23:25:07.892Z,35.83
2023-02-13T23:27:36.856Z,32.33
2023-02-13T23:30:05.921Z,33.47
2023-02-13T23:32:33.477Z,32.87
2023-02-13T23:35:01.099Z,35.43
2023-02-13T23:37:28.714Z,34.37
2023-02-13T23:39:57.546Z,33.83
2023-02-13T23:42:25.008Z,32.37
2023-02-13T23:44:52.478Z,34.30
2023-02-13T23:47:19.957Z,35.83
2023-02-13T23:49:47.438Z,37.37
2023-02-13T23:52:14.906Z,34.87
2023-02-13T23:54:42.385Z,33.27
2023-02-13T23:57:11.824Z,34.20
2023-02-13T23:59:39.332Z,35.60
